Latest Coastal Weather Observations for Wynyard

IDT60701

Issued at 6:12 pm EDT Friday 3 December 2021 (issued every 10 minutes, with the page automatically refreshed every 10 minutes)

About coastal observations | Map of coastal stations | Coastal observations for TAS | Marine services | Other Formats
Station Details ID: 091107 Name: WYNYARD AIRPORT Lat: -41.00 Lon: 145.73 Height: 12.0 m
Data from the previous 72 hours. | See also: Recent months at Wynyard
Date/Time
EDT
Wind Sea
Height
m
Swell Vis
km
Cloud Weather Temp
°C
Press
MSL
hPa
Rain since
9am
mm
Dir  Spd
kts
Gust
kts
Height
m
Period
s
Dir
03/06:00pm WSW 19 25 - - - - 10 Clear - 17.8 1015.1 0.0
03/05:30pm W 19 24 - - - - 10 - - 18.6 1015.1 0.0
03/05:00pm W 18 25 - - - - 10 - - 19.2 1014.9 0.0
03/04:30pm W 17 22 - - - - 10 - - 20.6 1014.8 0.0
03/04:00pm W 18 22 - - - - 10 - - 20.7 1014.8 0.0
03/03:30pm WNW 17 21 - - - - 10 - - 20.7 1014.8 0.0
03/03:00pm W 15 19 - - - - 10 - - 21.3 1014.8 0.0
03/02:30pm SSW 7 13 - - - - 10 - - 20.9 1015.2 0.0
03/02:00pm SW 8 16 - - - - 10 - - 20.5 1015.3 0.0
03/01:30pm WSW 10 15 - - - - 10 - - 20.1 1015.9 0.0
03/01:00pm NW 7 11 - - - - 10 - - 19.8 1016.2 0.0
03/12:30pm WSW 9 16 - - - - 10 - - 18.8 1016.2 0.0
03/12:00pm WSW 10 15 - - - - 10 - - 18.5 1016.5 0.0
03/11:30am SW 12 18 - - - - 10 - - 18.5 1016.7 0.0
03/11:00am SSW 9 13 - - - - 10 - - 17.3 1017.0 0.0
03/10:30am SSW 11 16 - - - - 10 - - 17.0 1017.2 0.0
03/10:00am SW 13 17 - - - - 10 - - 16.1 1017.3 0.0
03/09:30am SSW 13 17 - - - - 10 - - 15.8 1017.2 0.0
03/09:00am SW 14 24 - - - - 10 - - 15.0 1017.0 2.8
03/08:33am SW 15 26 - - - - 10 - - 14.7 1016.8 2.8
03/08:30am SW 14 26 - - - - 10 - - 14.6 1016.8 2.8
03/08:00am WSW 13 17 - - - - 10 - - 14.0 1016.6 2.8
03/07:30am WSW 10 13 - - - - 10 - - 13.0 1016.2 2.8
03/07:00am WSW 11 13 - - - - 10 - - 12.0 1015.9 2.8
03/06:30am WSW 11 14 - - - - 10 - - 11.4 1015.8 2.8
03/06:00am SW 11 14 - - - - 10 - - 11.0 1015.5 2.8
03/05:30am SW 12 15 - - - - 10 - - 10.6 1015.4 2.8
03/05:00am WSW 14 17 - - - - 10 - - 10.9 1015.2 2.8
03/04:30am WSW 16 20 - - - - 10 - - 10.8 1014.7 2.8
03/04:00am WSW 15 21 - - - - 10 - - 11.3 1014.5 2.8
03/03:30am WSW 13 16 - - - - 10 - - 10.8 1014.2 2.8
03/03:00am W 10 12 - - - - 10 - - 10.4 1014.0 2.8
03/02:30am W 9 10 - - - - 10 - - 10.1 1014.0 2.8
03/02:00am W 9 11 - - - - 10 - - 10.5 1014.1 2.8
03/01:30am WNW 8 9 - - - - 10 - - 11.1 1014.4 2.8
03/01:00am WNW 7 9 - - - - 10 - - 11.2 1014.4 2.8
03/12:30am W 8 12 - - - - 10 - - 10.9 1014.6 2.8
03/12:00am WSW 13 21 - - - - 10 - - 12.1 1014.9 2.8
 
Date/Time
EDT
Wind Sea
Height
m
Swell Vis
km
Cloud Weather Temp
°C
Press
MSL
hPa
Rain since
9am
mm
Dir  Spd
kts
Gust
kts
Height
m
Period
s
Dir
02/11:30pm WSW 12 16 - - - - 10 - - 12.1 1014.9 2.8
02/11:00pm WSW 13 17 - - - - 10 Partly cloudy - 12.6 1014.7 2.8
02/10:30pm W 12 17 - - - - 10 Partly cloudy - 13.2 1014.4 2.8
02/10:00pm WSW 13 19 - - - - 10 Partly cloudy - 14.0 1013.7 2.8
02/09:30pm W 11 15 - - - - 10 Partly cloudy - 14.2 1012.7 2.8
02/09:00pm W 9 12 - - - - 10 Cloudy Thunderstorm 15.0 1012.2 2.8
02/08:30pm WSW 14 18 - - - - 10 Cloudy - 15.5 1011.2 2.8
02/08:00pm W 14 17 - - - - 10 Partly cloudy - 16.3 1011.0 2.0
02/07:30pm NW 6 9 - - - - 10 Partly cloudy - 17.8 1010.5 1.4
02/07:00pm W 4 6 - - - - 10 Partly cloudy - 19.0 1009.8 0.6
02/06:30pm W 4 5 - - - - 10 Partly cloudy - 19.6 1010.1 0.6
02/06:00pm NW 5 7 - - - - 10 Cloudy - 18.7 1010.4 0.6
02/05:30pm NNE 8 10 - - - - 10 Partly cloudy - 18.4 1010.9 0.6
02/05:00pm NNE 7 9 - - - - 10 Partly cloudy - 18.7 1010.7 0.6
02/04:30pm NE 6 8 - - - - 10 Partly cloudy - 18.1 1011.0 0.6
02/04:00pm NE 5 7 - - - - 10 Partly cloudy - 17.8 1010.9 0.6
02/03:30pm NE 7 10 - - - - 10 Partly cloudy - 18.4 1011.2 0.2
02/03:00pm ENE 7 9 - - - - 10 Cloudy Recent precip. 18.3 1011.5 0.2
02/02:30pm NE 7 10 - - - - 10 Partly cloudy - 18.1 1012.0 0.0
02/02:00pm NE 7 10 - - - - 10 - - 19.5 1012.3 0.0
02/01:30pm NE 7 10 - - - - 10 - - 20.3 1012.5 0.0
02/01:00pm NE 6 8 - - - - 10 - - 20.6 1012.8 0.0
02/12:30pm E 8 10 - - - - 10 - - 19.2 1013.0 0.0
02/12:00pm E 10 14 - - - - 10 Partly cloudy - 19.1 1013.2 0.0
02/11:30am E 11 14 - - - - 10 - - 19.4 1013.3 0.0
02/11:00am E 11 14 - - - - 10 - - 19.3 1013.6 0.0
02/10:30am E 11 14 - - - - 10 - - 19.7 1013.7 0.0
02/10:00am ENE 12 15 - - - - 10 - - 19.5 1013.7 0.0
02/09:30am ENE 11 16 - - - - 10 - - 19.1 1013.8 0.0
02/09:00am ENE 12 15 - - - - 10 - - 19.5 1013.8 0.0
02/08:30am ENE 11 15 - - - - 10 - - 18.9 1013.8 0.0
02/08:00am E 9 12 - - - - 10 - - 19.1 1013.5 0.0
02/07:30am E 7 10 - - - - 10 - - 18.4 1013.1 0.0
02/07:00am WSW 2 4 - - - - 10 - - 16.2 1013.0 0.0
02/06:30am SW 4 6 - - - - 10 - - 13.5 1012.9 0.0
02/06:00am SSW 1 3 - - - - 10 - - 12.4 1012.6 0.0
02/05:30am S 2 5 - - - - 10 - - 12.7 1012.5 0.0
02/05:00am SSE 4 7 - - - - 10 - - 13.3 1012.4 0.0
02/04:30am SSE 5 6 - - - - 10 - - 12.3 1012.4 0.0
02/04:00am SW 3 4 - - - - 10 - - 11.5 1012.5 0.0
02/03:30am W 4 6 - - - - 10 - - 11.8 1012.5 0.0
02/03:00am WNW 1 3 - - - - 10 - - 12.6 1012.5 0.0
02/02:30am W 3 4 - - - - 10 - - 12.2 1012.7 0.0
02/02:00am WSW 3 4 - - - - 10 - - 13.0 1012.9 0.0
02/01:30am SSW 6 7 - - - - 10 - - 12.6 1013.1 0.0
02/01:00am SSW 5 5 - - - - 10 - - 13.6 1013.4 0.0
02/12:30am CALM 0 0 - - - - 10 - - 12.9 1013.6 0.0
02/12:00am SSE 1 3 - - - - 10 - - 13.8 1013.7 0.0
 
Date/Time
EDT
Wind Sea
Height
m
Swell Vis
km
Cloud Weather Temp
°C
Press
MSL
hPa
Rain since
9am
mm
Dir  Spd
kts
Gust
kts
Height
m
Period
s
Dir
01/11:30pm S 4 6 - - - - 10 - - 14.4 1013.7 0.0
01/11:00pm SE 4 5 - - - - 10 - - 15.0 1013.8 0.0
01/10:30pm ESE 4 6 - - - - 10 - - 15.4 1014.2 0.0
01/10:00pm E 5 7 - - - - 10 - - 15.5 1013.8 0.0
01/09:30pm E 6 7 - - - - 10 - - 15.7 1013.6 0.0
01/09:00pm E 6 8 - - - - 10 - - 15.8 1013.4 0.0
01/08:30pm E 5 6 - - - - 10 - - 16.4 1013.3 0.0
01/08:00pm E 7 9 - - - - 10 - - 17.4 1013.0 0.0
01/07:30pm E 7 10 - - - - 10 - - 18.1 1012.8 0.0
01/07:00pm E 8 11 - - - - 10 - - 18.7 1012.7 0.0
01/06:30pm E 8 10 - - - - 10 - - 19.2 1012.3 0.0
01/06:00pm E 8 11 - - - - 10 Mostly clear - 18.7 1012.3 0.0
01/05:30pm ENE 10 12 - - - - 10 Partly cloudy - 19.3 1012.2 0.0
01/05:00pm E 11 13 - - - - 10 - - 19.5 1012.3 0.0
01/04:30pm ENE 10 13 - - - - 10 Partly cloudy - 20.0 1012.5 0.0
01/04:00pm ENE 10 14 - - - - 10 - - 19.8 1012.6 0.0
01/03:30pm E 10 14 - - - - 10 - - 20.0 1012.8 0.0
01/03:00pm E 10 14 - - - - 10 Mostly cloudy - 19.4 1013.1 0.0
01/02:30pm E 13 17 - - - - 10 - - 20.9 1013.1 0.0
01/02:00pm E 6 8 - - - - 10 - - 19.4 1013.9 0.0
01/01:30pm ESE 10 14 - - - - 10 - - 19.7 1013.8 0.0
01/01:00pm E 12 16 - - - - 10 - - 19.6 1013.5 0.0
01/12:30pm E 13 17 - - - - 10 - - 19.2 1013.8 0.0
01/12:00pm E 13 16 - - - - 10 Cloudy - 18.1 1014.1 0.0
01/11:30am E 14 18 - - - - 10 - - 19.0 1014.0 0.0
01/11:00am E 15 19 - - - - 10 - - 18.2 1014.1 0.0
01/10:30am E 14 19 - - - - 10 - - 18.6 1014.1 0.0
01/10:00am E 15 19 - - - - 10 - - 18.4 1014.1 0.0
01/09:30am E 14 18 - - - - 10 - - 18.1 1014.2 0.0
01/09:00am E 14 19 - - - - 10 - - 17.4 1014.1 0.0
01/08:30am E 13 18 - - - - 10 - - 17.7 1014.0 0.0
01/08:10am E 14 18 - - - - 10 Partly cloudy - 17.1 1013.8 0.0
01/08:00am E 14 18 - - - - 10 Partly cloudy - 16.9 1013.7 0.0
01/07:30am E 12 17 - - - - 10 Cloudy - 16.6 1013.5 0.0
01/07:00am E 7 10 - - - - 10 Cloudy - 16.2 1013.4 0.0
01/06:30am ESE 7 9 - - - - 10 Cloudy - 15.7 1013.4 0.0
01/06:00am ESE 9 11 - - - - 10 Cloudy - 15.5 1013.2 0.0
01/05:00am ESE 9 13 - - - - 10 Cloudy - 15.7 1013.2 0.0
01/04:30am ESE 11 14 - - - - 10 Cloudy - 15.8 1013.2 0.0
01/04:00am ESE 8 12 - - - - 10 Partly cloudy - 15.6 1013.3 0.0
01/03:30am ESE 9 12 - - - - 10 Partly cloudy - 15.6 1013.6 0.0
01/03:00am E 12 16 - - - - 10 Cloudy - 15.8 1013.8 0.0
01/02:30am ESE 11 14 - - - - 10 Partly cloudy - 15.7 1014.1 0.0
01/02:00am E 12 17 - - - - 10 Cloudy - 16.1 1014.4 0.0
01/01:30am ESE 11 16 - - - - 10 Cloudy - 16.1 1014.6 0.0
01/01:00am E 11 16 - - - - 10 Cloudy - 16.1 1014.7 0.0
01/12:54am E 12 15 - - - - 10 Cloudy - 16.1 1014.7 0.0
01/12:30am E 11 14 - - - - 10 Cloudy - 16.0 1015.0 0.0
01/12:12am ESE 6 8 - - - - 10 Cloudy - 15.6 1015.0 0.0
01/12:00am ESE 6 8 - - - - 10 Mostly cloudy - 15.5 1015.0 0.0
 
Date/Time
EDT
Wind Sea
Height
m
Swell Vis
km
Cloud Weather Temp
°C
Press
MSL
hPa
Rain since
9am
mm
Dir  Spd
kts
Gust
kts
Height
m
Period
s
Dir
30/11:41pm ESE 6 8 - - - - 10 Partly cloudy - 14.8 1015.1 0.0
30/11:30pm E 7 9 - - - - 10 Partly cloudy - 14.2 1015.1 0.0
30/11:00pm ESE 8 10 - - - - 10 - - 14.7 1015.3 0.0
30/10:30pm SE 7 10 - - - - 10 - - 14.9 1015.5 0.0
30/10:00pm SE 7 9 - - - - 10 - - 14.8 1015.6 0.0
30/09:30pm ESE 8 11 - - - - 10 - - 15.3 1015.4 0.0
30/09:00pm ESE 7 10 - - - - 10 Mostly clear - 15.4 1015.4 0.0
30/08:30pm ESE 9 12 - - - - 10 - - 15.7 1015.1 0.0
30/08:00pm ESE 9 12 - - - - 10 - - 16.3 1014.8 0.0
30/07:30pm ESE 10 13 - - - - 10 - - 16.8 1014.7 0.0
30/07:00pm E 11 15 - - - - 10 - - 17.2 1014.5 0.0
30/06:30pm E 11 14 - - - - 10 - - 17.4 1014.7 0.0

Other formats

Comma delimited format used in spreadsheet applications
http://www.bom.gov.au/fwo/IDT60701/IDT60701.95957.axf

JavaScript Object Notation format (JSON) in row-major order
http://www.bom.gov.au/fwo/IDT60701/IDT60701.95957.json

Data quality

Most of these data are generated automatically and are frequently updated. Quality checks on data are not normally performed. It is possible for incorrect values to appear. Refer to information at About Latest Weather Observations and please check the disclaimer before using these data.